Archiv-/Tagesdaten

--Timestamp---	Temp	Chill	HIndex	Humid	Dewpt	 Wind 	HiWind	WindDir	Rain 	Barom	Solar	 ET  	 UV 
--------------	----	-----	------	-----	-----	------	------	-------	-----	-----	-----	-----	----
20101014 00:00	2.1	2.1	2.1	91	0.7	0	0	-100000	0.0	1013.7	0	0.000	0.0
20101014 00:05	2.0	2.0	2.0	91	0.7	0	0	-100000	0.0	1013.7	0	0.000	0.0
20101014 00:10	1.9	1.9	1.9	91	0.6	0	0	-100000	0.0	1013.6	0	0.000	0.0
20101014 00:15	1.9	1.9	1.9	91	0.6	0	0	-100000	0.0	1013.7	0	0.000	0.0
20101014 00:20	1.9	1.9	1.9	91	0.6	0	0	-100000	0.0	1013.6	0	0.000	0.0
20101014 00:25	2.0	2.0	2.0	92	0.8	0	0	-100000	0.0	1013.6	0	0.000	0.0
20101014 00:30	2.2	2.2	2.2	92	1.0	0	0	-100000	0.0	1013.6	0	0.000	0.0
20101014 00:35	2.3	2.3	2.3	92	1.1	0	0	-100000	0.0	1013.7	0	0.000	0.0
20101014 00:40	2.4	2.4	2.4	92	1.2	0	3	202	0.0	1013.7	0	0.000	0.0
20101014 00:45	2.5	2.5	2.5	92	1.3	0	3	202	0.0	1013.5	0	0.000	0.0
20101014 00:50	2.6	2.6	2.6	92	1.4	0	5	202	0.0	1013.5	0	0.000	0.0
20101014 00:55	2.7	2.7	2.7	92	1.5	0	3	202	0.0	1013.6	0	0.000	0.0
20101014 01:00	2.7	2.7	2.7	92	1.6	0	3	202	0.0	1013.5	0	0.000	0.0
20101014 01:05	2.8	2.8	2.8	92	1.6	0	0	-100000	0.0	1013.6	0	0.000	0.0
20101014 01:10	2.8	2.8	2.8	92	1.7	0	0	-100000	0.0	1013.5	0	0.000	0.0
20101014 01:15	2.9	2.9	2.9	92	1.8	0	0	-100000	0.0	1013.6	0	0.000	0.0
20101014 01:20	3.0	3.0	3.0	92	1.8	0	0	-100000	0.0	1013.5	0	0.000	0.0
20101014 01:25	3.1	3.1	3.1	92	1.9	0	0	-100000	0.0	1013.5	0	0.000	0.0
20101014 01:30	3.1	3.1	3.1	92	1.9	0	0	-100000	0.0	1013.5	0	0.000	0.0
20101014 01:35	3.2	3.2	3.2	92	2.0	0	0	-100000	0.0	1013.6	0	0.000	0.0
20101014 01:40	3.3	3.3	3.3	92	2.1	0	2	202	0.0	1013.6	0	0.000	0.0
20101014 01:45	3.4	3.4	3.4	92	2.2	0	3	202	0.0	1013.5	0	0.000	0.0
20101014 01:50	3.4	3.4	3.4	92	2.3	0	0	-100000	0.0	1013.6	0	0.000	0.0
20101014 01:55	3.6	3.6	3.6	92	2.4	0	0	-100000	0.0	1013.5	0	0.000	0.0
20101014 02:00	3.6	3.6	3.6	92	2.4	0	0	-100000	0.0	1013.3	0	0.000	0.0
20101014 02:05	3.7	3.7	3.7	92	2.5	0	0	-100000	0.0	1013.3	0	0.000	0.0
20101014 02:10	3.7	3.7	3.7	92	2.5	0	0	-100000	0.0	1013.3	0	0.000	0.0
20101014 02:15	3.8	3.8	3.8	92	2.6	0	0	-100000	0.0	1013.3	0	0.000	0.0
20101014 02:20	3.8	3.8	3.8	92	2.7	0	0	-100000	0.0	1013.3	0	0.000	0.0
20101014 02:25	3.9	3.9	3.9	92	2.7	0	0	-100000	0.0	1013.3	0	0.000	0.0
20101014 02:30	3.9	3.9	3.9	93	2.9	0	0	-100000	0.0	1013.3	0	0.000	0.0
20101014 02:35	4.1	4.1	4.1	93	3.0	0	0	-100000	0.0	1013.3	0	0.000	0.0
20101014 02:40	4.2	4.2	4.2	93	3.1	0	0	-100000	0.0	1013.3	0	0.000	0.0
20101014 02:45	4.2	4.2	4.2	93	3.2	0	2	202	0.0	1013.1	622	0.000	0.0
20101014 02:50	4.3	4.3	4.3	93	3.3	0	0	-100000	0.0	1013.1	0	0.000	0.0
20101014 02:55	4.3	4.3	4.3	93	3.3	0	5	202	0.0	1013.1	0	0.000	0.0
20101014 03:00	4.4	4.4	4.4	93	3.4	0	0	-100000	0.0	1013.0	0	0.000	0.0
20101014 03:05	4.4	4.4	4.4	93	3.4	0	3	202	0.0	1012.9	0	0.000	0.0
20101014 03:10	4.5	4.5	4.5	93	3.5	0	3	202	0.0	1012.8	0	0.000	0.0
20101014 03:15	4.6	4.6	4.6	93	3.5	2	3	202	0.0	1012.8	0	0.000	0.0
20101014 03:20	4.6	4.6	4.6	93	3.6	0	2	202	0.0	1012.8	0	0.000	0.0
20101014 03:25	4.7	4.7	4.7	93	3.6	0	2	202	0.0	1012.7	0	0.000	0.0
20101014 03:30	4.7	4.7	4.7	93	3.6	0	0	-100000	0.0	1012.8	0	0.000	0.0
20101014 03:35	4.7	4.7	4.7	93	3.7	0	0	-100000	0.0	1012.7	0	0.000	0.0
20101014 03:40	4.7	4.7	4.7	93	3.7	0	2	202	0.0	1012.8	0	0.000	0.0
20101014 03:45	4.7	4.7	4.7	93	3.7	0	3	202	0.0	1012.7	0	0.000	0.0
20101014 03:50	4.7	4.7	4.7	93	3.6	0	0	-100000	0.0	1012.7	0	0.000	0.0
20101014 03:55	4.7	4.7	4.7	93	3.6	0	0	-100000	0.0	1012.8	0	0.000	0.0
20101014 04:00	4.7	4.7	4.7	93	3.6	0	2	202	0.0	1012.7	0	0.000	0.0
20101014 04:05	4.6	4.6	4.6	93	3.6	0	0	-100000	0.0	1012.6	0	0.000	0.0
20101014 04:10	4.6	4.6	4.6	93	3.5	0	2	202	0.0	1012.6	0	0.000	0.0
20101014 04:15	4.6	4.6	4.6	93	3.5	0	0	-100000	0.0	1012.6	0	0.000	0.0
20101014 04:20	4.6	4.6	4.6	93	3.5	0	0	-100000	0.0	1012.6	0	0.000	0.0
20101014 04:25	4.6	4.6	4.6	93	3.5	2	5	202	0.0	1012.5	0	0.000	0.0
20101014 04:30	4.6	4.6	4.6	93	3.5	0	3	202	0.0	1012.5	0	0.000	0.0
20101014 04:35	4.5	4.5	4.5	93	3.5	2	5	202	0.0	1012.6	0	0.000	0.0
20101014 04:40	4.5	4.5	4.5	93	3.5	0	2	202	0.0	1012.5	0	0.000	0.0
20101014 04:45	4.5	4.5	4.5	93	3.5	0	0	-100000	0.0	1012.6	0	0.000	0.0
20101014 04:50	4.4	4.4	4.4	93	3.4	2	5	202	0.0	1012.6	0	0.000	0.0
20101014 04:55	4.4	4.4	4.4	93	3.4	0	2	202	0.0	1012.6	0	0.000	0.0
20101014 05:00	4.4	4.4	4.4	93	3.4	0	3	202	0.0	1012.7	0	0.000	0.0
20101014 05:05	4.4	4.4	4.4	93	3.4	0	2	202	0.0	1012.8	0	0.000	0.0
20101014 05:10	4.4	4.4	4.4	93	3.4	0	3	202	0.0	1012.8	0	0.000	0.0
20101014 05:15	4.4	4.4	4.4	93	3.4	2	5	202	0.0	1012.8	0	0.000	0.0
20101014 05:20	4.4	4.4	4.4	93	3.4	0	3	202	0.0	1012.9	0	0.000	0.0
20101014 05:25	4.5	4.5	4.5	93	3.5	0	0	-100000	0.0	1012.9	0	0.000	0.0
20101014 05:30	4.5	4.5	4.5	93	3.5	0	0	-100000	0.0	1012.9	0	0.000	0.0
20101014 05:35	4.5	4.5	4.5	93	3.5	0	0	-100000	0.0	1012.9	0	0.000	0.0
20101014 05:40	4.5	4.5	4.5	93	3.5	0	0	-100000	0.0	1013.0	0	0.000	0.0
20101014 05:45	4.6	4.6	4.6	93	3.5	0	0	-100000	0.0	1013.0	0	0.000	0.0
20101014 05:50	4.6	4.6	4.6	93	3.5	0	2	202	0.0	1013.0	0	0.000	0.0
20101014 05:55	4.6	4.6	4.6	93	3.5	0	0	-100000	0.0	1013.1	0	0.000	0.0
20101014 06:00	4.6	4.6	4.6	93	3.6	0	0	-100000	0.0	1013.1	0	0.000	0.0
20101014 06:05	4.7	4.7	4.7	93	3.6	0	2	202	0.0	1013.4	0	0.000	0.0
20101014 06:10	4.7	4.7	4.7	93	3.6	0	0	-100000	0.0	1013.4	0	0.000	0.0
20101014 06:15	4.7	4.7	4.7	93	3.7	0	2	202	0.0	1013.4	0	0.000	0.0
20101014 06:20	4.7	4.7	4.7	93	3.7	0	0	-100000	0.0	1013.4	0	0.000	0.0
20101014 06:25	4.8	4.8	4.8	93	3.7	0	0	-100000	0.0	1013.4	0	0.000	0.0
20101014 06:30	4.8	4.8	4.8	93	3.7	0	0	-100000	0.0	1013.3	0	0.000	0.0
20101014 06:35	4.8	4.8	4.8	93	3.7	0	0	-100000	0.0	1013.3	0	0.000	0.0
20101014 06:40	4.8	4.8	4.8	93	3.8	0	0	-100000	0.0	1013.3	0	0.000	0.0
20101014 06:45	4.8	4.8	4.8	93	3.8	0	0	-100000	0.0	1013.3	0	0.000	0.0
20101014 06:50	4.9	4.9	4.9	93	3.9	0	0	-100000	0.0	1013.3	0	0.000	0.0
20101014 06:55	4.9	4.9	4.9	93	3.9	0	0	-100000	0.0	1013.3	0	0.000	0.0
20101014 07:00	4.9	4.9	4.9	93	3.9	0	0	-100000	0.0	1013.3	0	0.000	0.0
20101014 07:05	4.9	4.9	4.9	93	3.9	0	0	-100000	0.0	1013.4	0	0.000	0.0
20101014 07:10	4.9	4.9	4.9	93	3.9	0	0	-100000	0.0	1013.4	0	0.000	0.0
20101014 07:15	5.0	5.0	5.0	93	4.0	0	0	-100000	0.0	1013.4	0	0.000	0.0
20101014 07:20	5.1	5.1	5.1	93	4.0	2	3	202	0.0	1013.5	0	0.000	0.0
20101014 07:25	5.1	5.1	5.1	93	4.0	0	2	202	0.0	1013.5	0	0.000	0.0
20101014 07:30	5.1	5.1	5.1	93	4.0	2	3	202	0.0	1013.5	0	0.000	0.0
20101014 07:35	5.1	5.1	5.1	93	4.1	0	0	-100000	0.0	1013.6	0	0.000	0.0
20101014 07:40	5.1	5.1	5.1	92	3.9	0	0	-100000	0.0	1013.7	0	0.000	0.0
20101014 07:45	5.2	5.2	5.2	92	4.0	0	2	202	0.0	1013.7	0	0.000	0.0
20101014 07:50	5.2	5.2	5.2	92	4.0	0	2	202	0.0	1013.7	0	0.000	0.0
20101014 07:55	5.2	5.2	5.2	92	4.0	0	2	202	0.0	1013.7	3	0.000	0.0
20101014 08:00	5.2	5.2	5.2	92	4.0	0	3	202	0.0	1013.8	6	0.000	0.0
20101014 08:05	5.3	5.3	5.3	92	4.1	0	2	202	0.0	1014.0	7	0.000	0.0
20101014 08:10	5.3	5.3	5.3	92	4.1	0	0	-100000	0.0	1013.9	9	0.000	0.0
20101014 08:15	5.4	5.4	5.4	92	4.2	0	2	202	0.0	1014.0	12	0.000	0.0
20101014 08:20	5.4	5.4	5.4	92	4.2	0	0	-100000	0.0	1014.0	15	0.000	0.0
20101014 08:25	5.5	5.5	5.5	92	4.3	0	0	-100000	0.0	1014.1	19	0.000	0.0
20101014 08:30	5.5	5.5	5.5	92	4.3	0	0	-100000	0.0	1014.1	19	0.000	0.0
20101014 08:35	5.6	5.6	5.6	92	4.4	0	0	-100000	0.0	1014.1	22	0.000	0.0
20101014 08:40	5.6	5.6	5.6	92	4.4	0	0	-100000	0.0	1014.1	24	0.000	0.0
20101014 08:45	5.7	5.7	5.7	92	4.5	2	3	202	0.0	1014.2	27	0.000	0.0
20101014 08:50	5.7	5.7	5.7	92	4.5	0	3	202	0.0	1014.2	28	0.000	0.0
20101014 08:55	5.8	5.8	5.8	92	4.6	0	2	202	0.0	1014.2	31	0.000	0.0
20101014 09:00	5.8	5.8	5.8	92	4.6	2	3	225	0.0	1014.2	34	0.000	0.0
20101014 09:05	5.9	5.9	5.9	92	4.7	2	5	135	0.0	1014.2	37	0.000	0.0
20101014 09:10	5.9	5.9	5.9	92	4.7	2	5	135	0.0	1014.3	40	0.000	0.0
20101014 09:15	6.0	6.0	6.0	92	4.8	0	3	135	0.0	1014.3	48	0.000	0.0
20101014 09:20	6.1	6.1	6.1	92	4.9	5	6	158	0.0	1014.3	51	0.000	0.0
20101014 09:25	6.2	6.2	6.2	91	4.8	3	6	158	0.0	1014.3	53	0.000	0.0
20101014 09:30	6.3	6.3	6.3	91	4.9	3	6	158	0.0	1014.3	58	0.000	0.0
20101014 09:35	6.4	6.4	6.4	91	5.0	3	6	158	0.0	1014.3	62	0.000	0.0
20101014 09:40	6.4	6.4	6.4	91	5.1	2	5	158	0.0	1014.2	62	0.000	0.0
20101014 09:45	6.6	6.6	6.6	91	5.2	3	6	158	0.0	1014.1	64	0.000	0.0
20101014 09:50	6.6	6.6	6.6	91	5.2	3	6	158	0.0	1014.1	69	0.000	0.0
20101014 09:55	6.7	6.7	6.7	90	5.1	3	5	112	0.0	1014.2	71	0.000	0.0
20101014 10:00	6.7	6.7	6.7	90	5.2	2	5	315	0.0	1014.3	72	0.025	0.0
20101014 10:05	6.8	6.8	6.8	90	5.3	2	5	315	0.0	1014.4	74	0.000	0.0
20101014 10:10	6.8	6.8	6.8	89	5.1	2	5	315	0.0	1014.5	72	0.000	0.0
20101014 10:15	6.9	6.9	6.9	89	5.3	2	6	315	0.0	1014.4	76	0.000	0.3
20101014 10:20	6.9	6.9	6.9	88	5.1	0	2	315	0.0	1014.3	81	0.000	0.5
20101014 10:25	7.0	7.0	7.0	88	5.1	0	2	315	0.0	1014.3	88	0.000	0.5
20101014 10:30	7.1	7.1	7.1	88	5.2	0	0	-100000	0.0	1014.3	90	0.000	0.5
20101014 10:35	7.2	7.2	7.2	88	5.4	0	0	-100000	0.0	1014.4	90	0.000	0.5
20101014 10:40	7.3	7.3	7.3	87	5.3	0	0	-100000	0.0	1014.4	91	0.000	0.5
20101014 10:45	7.3	7.3	7.3	87	5.3	0	0	-100000	0.0	1014.3	97	0.000	0.6
20101014 10:50	7.4	7.4	7.4	86	5.2	0	0	-100000	0.0	1014.4	107	0.000	0.7
20101014 10:55	7.4	7.4	7.4	86	5.3	0	0	-100000	0.0	1014.4	105	0.000	0.7
20101014 11:00	7.6	7.6	7.6	86	5.4	0	2	315	0.0	1014.4	110	0.051	0.7
20101014 11:05	7.6	7.6	7.6	85	5.3	0	2	315	0.0	1014.4	121	0.000	0.8
20101014 11:10	7.6	7.6	7.6	84	5.1	0	0	-100000	0.0	1014.4	122	0.000	0.8
20101014 11:15	7.7	7.7	7.7	84	5.1	2	5	315	0.0	1014.5	116	0.000	0.8
20101014 11:20	7.7	7.7	7.7	84	5.2	0	3	315	0.0	1014.5	114	0.000	0.8
20101014 11:25	7.8	7.8	7.8	84	5.3	0	5	0	0.0	1014.5	122	0.000	0.9
20101014 11:30	7.9	7.9	7.9	84	5.4	0	3	315	0.0	1014.6	124	0.000	0.9
20101014 11:35	7.9	7.9	7.9	84	5.4	0	5	0	0.0	1014.6	114	0.000	0.8
20101014 11:40	7.9	7.9	7.9	83	5.2	3	6	0	0.0	1014.6	108	0.000	0.8
20101014 11:45	7.9	7.9	7.9	84	5.4	2	8	0	0.0	1014.7	111	0.000	0.8
20101014 11:50	8.0	8.0	8.0	84	5.5	2	5	0	0.0	1014.7	116	0.000	0.9
20101014 11:55	8.1	8.1	8.1	85	5.7	3	8	22	0.0	1014.7	114	0.000	0.9
20101014 12:00	8.1	8.1	8.1	85	5.7	2	6	22	0.0	1014.7	119	0.051	0.9
20101014 12:05	8.1	8.1	8.1	85	5.7	3	8	68	0.0	1014.6	126	0.000	1.0
20101014 12:10	8.1	8.1	8.1	84	5.5	3	8	68	0.0	1014.6	120	0.000	0.9
20101014 12:15	8.1	8.1	8.1	85	5.7	5	8	0	0.0	1014.7	107	0.000	0.8
20101014 12:20	8.0	7.1	8.0	84	5.5	6	10	22	0.0	1014.8	90	0.000	0.7
20101014 12:25	7.8	7.8	7.8	84	5.3	5	6	22	0.0	1014.8	85	0.000	0.7
20101014 12:30	7.8	7.8	7.8	83	5.1	5	10	22	0.0	1014.8	88	0.000	0.7
20101014 12:35	7.8	7.8	7.8	83	5.1	3	8	22	0.0	1014.8	103	0.000	0.8
20101014 12:40	7.8	7.8	7.8	83	5.1	5	10	45	0.0	1014.8	121	0.000	1.0
20101014 12:45	7.8	7.8	7.8	83	5.1	5	10	45	0.0	1014.8	120	0.000	1.0
20101014 12:50	7.9	7.9	7.9	83	5.2	2	6	45	0.0	1014.8	128	0.000	1.1
20101014 12:55	8.0	8.0	8.0	82	5.1	2	6	45	0.0	1014.8	130	0.000	1.0
20101014 13:00	8.1	8.1	8.1	81	5.0	3	8	45	0.0	1014.7	143	0.051	1.1
20101014 13:05	8.1	8.1	8.1	81	5.0	5	8	45	0.0	1014.5	142	0.000	1.1
20101014 13:10	8.1	8.1	8.1	80	4.8	5	8	45	0.0	1014.5	147	0.000	1.1
20101014 13:15	8.1	8.1	8.1	81	5.0	2	6	45	0.0	1014.5	131	0.000	1.0
20101014 13:20	8.2	8.2	8.2	79	4.7	3	6	45	0.0	1014.5	135	0.000	1.1
20101014 13:25	8.2	8.2	8.2	80	4.9	2	5	22	0.0	1014.4	144	0.000	1.1
20101014 13:30	8.2	7.3	8.2	77	4.4	6	11	22	0.0	1014.4	157	0.000	1.2
20101014 13:35	8.2	6.9	8.2	76	4.2	8	16	22	0.0	1014.3	178	0.000	1.4
20101014 13:40	8.2	7.3	8.2	75	4.1	6	10	45	0.0	1014.3	269	0.000	1.9
20101014 13:45	8.4	8.4	8.4	73	3.8	3	11	45	0.0	1014.2	306	0.000	2.2
20101014 13:50	8.6	8.6	8.6	74	4.2	0	3	45	0.0	1014.1	341	0.000	2.3
20101014 13:55	8.9	8.9	8.9	73	4.4	2	6	45	0.0	1014.0	314	0.000	2.4
20101014 14:00	9.3	9.3	9.3	71	4.3	3	6	45	0.0	1013.9	362	0.102	2.5
20101014 14:05	9.4	9.4	9.4	71	4.5	2	6	68	0.0	1014.0	392	0.000	2.5
20101014 14:10	9.4	9.4	9.4	70	4.2	2	6	68	0.0	1014.0	325	0.000	2.2
20101014 14:15	9.3	9.3	9.3	70	4.1	2	5	68	0.0	1014.0	308	0.000	2.1
20101014 14:20	9.3	9.3	9.3	71	4.3	2	8	202	0.0	1013.9	315	0.000	2.1
20101014 14:25	9.7	9.7	9.7	69	4.3	3	8	225	0.0	1014.1	312	0.000	2.1
20101014 14:30	9.7	9.7	9.7	68	4.1	2	5	225	0.0	1014.0	263	0.000	1.6
20101014 14:35	9.5	9.5	9.5	68	3.9	2	3	225	0.0	1014.2	205	0.000	1.3
20101014 14:40	9.3	9.3	9.3	69	3.9	0	0	-100000	0.0	1014.2	165	0.000	1.0
20101014 14:45	9.4	9.4	9.4	69	4.0	2	6	225	0.0	1014.1	145	0.000	1.0
20101014 14:50	9.4	9.4	9.4	70	4.2	3	8	315	0.0	1014.0	135	0.000	0.9
20101014 14:55	9.4	9.4	9.4	69	4.0	3	6	315	0.0	1014.0	147	0.000	1.0
20101014 15:00	9.4	9.4	9.4	69	4.0	3	8	315	0.0	1014.1	163	0.127	1.0
20101014 15:05	9.4	9.4	9.4	69	4.0	5	10	292	0.0	1014.1	173	0.000	1.0
20101014 15:10	9.4	9.4	9.4	69	4.0	2	5	292	0.0	1014.0	182	0.000	1.1
20101014 15:15	9.4	9.4	9.4	69	4.0	2	5	292	0.0	1014.0	204	0.000	1.3
20101014 15:20	9.4	9.4	9.4	69	4.0	2	6	292	0.0	1014.0	188	0.000	1.1
20101014 15:25	9.3	9.3	9.3	69	3.9	2	6	292	0.0	1014.0	160	0.000	1.0
20101014 15:30	9.3	9.3	9.3	69	3.9	0	0	-100000	0.0	1014.0	151	0.000	1.0
20101014 15:35	9.4	9.4	9.4	69	4.0	2	6	292	0.0	1014.0	155	0.000	0.9
20101014 15:40	9.5	9.5	9.5	70	4.3	0	5	292	0.0	1014.1	138	0.000	0.8
20101014 15:45	9.6	9.6	9.6	70	4.4	2	5	292	0.0	1014.0	130	0.000	0.7
20101014 15:50	9.7	9.7	9.7	70	4.5	2	5	292	0.0	1014.0	132	0.000	0.7
20101014 15:55	9.7	9.7	9.7	70	4.5	0	3	292	0.0	1014.1	186	0.000	0.8
20101014 16:00	9.8	9.8	9.8	68	4.2	2	5	292	0.0	1014.0	245	0.076	0.7
20101014 16:05	10.1	10.1	10.1	67	4.3	2	8	292	0.0	1013.9	276	0.000	0.8
20101014 16:10	10.4	10.4	10.4	66	4.3	5	10	248	0.0	1013.9	261	0.000	0.8
20101014 16:15	10.6	10.6	10.6	65	4.3	2	5	248	0.0	1013.9	241	0.000	0.8
20101014 16:20	10.7	10.7	10.7	63	3.9	3	6	248	0.0	1014.0	254	0.000	0.7
20101014 16:25	10.7	10.7	10.7	64	4.1	2	5	248	0.0	1014.0	192	0.000	0.7
20101014 16:30	10.6	10.6	10.6	64	4.0	0	2	248	0.0	1014.0	176	0.000	0.6
20101014 16:35	10.4	10.4	10.4	65	4.1	2	5	248	0.0	1014.0	161	0.000	0.6
20101014 16:40	10.3	10.3	10.3	65	4.0	2	8	248	0.0	1014.0	106	0.000	0.3
20101014 16:45	10.2	10.2	10.2	65	3.9	2	6	248	0.0	1014.0	87	0.000	0.0
20101014 16:50	10.0	10.0	10.0	67	4.2	2	6	248	0.0	1014.0	86	0.000	0.0
20101014 16:55	9.8	9.8	9.8	67	4.0	0	3	248	0.0	1014.0	76	0.000	0.0
20101014 17:00	9.7	9.7	9.7	67	3.8	2	5	248	0.0	1014.0	64	0.076	0.0
20101014 17:05	9.4	9.4	9.4	67	3.6	2	5	248	0.0	1014.2	54	0.000	0.0
20101014 17:10	9.3	9.3	9.3	68	3.7	0	5	248	0.0	1014.1	51	0.000	0.0
20101014 17:15	9.2	9.2	9.2	68	3.6	0	0	-100000	0.0	1014.2	44	0.000	0.0
20101014 17:20	9.1	9.1	9.1	68	3.5	0	0	-100000	0.0	1014.2	41	0.000	0.0
20101014 17:25	9.1	9.1	9.1	70	3.9	0	0	-100000	0.0	1014.2	35	0.000	0.0
20101014 17:30	9.0	9.0	9.0	69	3.6	0	2	248	0.0	1014.1	29	0.000	0.0
20101014 17:35	8.9	8.9	8.9	70	3.8	0	2	248	0.0	1014.1	21	0.000	0.0
20101014 17:40	8.9	8.9	8.9	70	3.7	0	3	248	0.0	1014.1	18	0.000	0.0
20101014 17:45	8.8	8.8	8.8	71	3.9	2	3	248	0.0	1014.1	15	0.000	0.0
20101014 17:50	8.8	8.8	8.8	71	3.9	0	2	248	0.0	1014.2	12	0.000	0.0
20101014 17:55	8.8	8.8	8.8	72	4.0	0	0	-100000	0.0	1014.2	12	0.000	0.0
20101014 18:00	8.7	8.7	8.7	72	4.0	0	2	248	0.0	1014.2	10	0.025	0.0
20101014 18:05	8.7	8.7	8.7	72	4.0	0	0	-100000	0.0	1014.2	8	0.000	0.0
20101014 18:10	8.7	8.7	8.7	72	3.9	0	0	-100000	0.0	1014.2	5	0.000	0.0
20101014 18:15	8.7	8.7	8.7	73	4.1	0	0	-100000	0.0	1014.2	4	0.000	0.0
20101014 18:20	8.6	8.6	8.6	73	4.0	0	2	248	0.0	1014.2	-100000	0.000	0.0
20101014 18:25	8.6	8.6	8.6	73	4.0	0	3	248	0.0	1014.4	0	0.000	0.0
20101014 18:30	8.6	8.6	8.6	74	4.2	0	3	248	0.0	1014.3	0	0.000	0.0
20101014 18:35	8.6	8.6	8.6	74	4.2	0	3	248	0.0	1014.3	0	0.000	0.0
20101014 18:40	8.5	8.5	8.5	74	4.1	0	5	248	0.0	1014.4	0	0.000	0.0
20101014 18:45	8.5	8.5	8.5	74	4.1	2	6	248	0.0	1014.5	0	0.000	0.0
20101014 18:50	8.4	8.4	8.4	74	4.1	0	2	248	0.0	1014.5	0	0.000	0.0
20101014 18:55	8.4	8.4	8.4	75	4.3	0	3	248	0.0	1014.4	0	0.000	0.0
20101014 19:00	8.4	8.4	8.4	75	4.2	2	3	248	0.0	1014.5	0	0.000	0.0
20101014 19:05	8.3	8.3	8.3	75	4.2	0	5	248	0.0	1014.6	0	0.000	0.0
20101014 19:10	8.3	8.3	8.3	75	4.2	2	5	248	0.0	1014.6	0	0.000	0.0
20101014 19:15	8.3	8.3	8.3	75	4.2	0	2	248	0.0	1014.6	0	0.000	0.0
20101014 19:20	8.3	8.3	8.3	76	4.3	0	3	248	0.0	1014.6	0	0.000	0.0
20101014 19:25	8.3	8.3	8.3	76	4.3	0	2	248	0.0	1014.6	0	0.000	0.0
20101014 19:30	8.2	8.2	8.2	77	4.4	0	3	248	0.0	1014.6	0	0.000	0.0
20101014 19:35	8.2	8.2	8.2	78	4.6	0	0	-100000	0.0	1014.7	0	0.000	0.0
20101014 19:40	8.1	8.1	8.1	78	4.5	0	3	248	0.0	1014.6	0	0.000	0.0
20101014 19:45	8.0	8.0	8.0	79	4.6	0	2	248	0.0	1014.8	0	0.000	0.0
20101014 19:50	7.9	7.9	7.9	79	4.5	0	3	248	0.0	1014.8	0	0.000	0.0
20101014 19:55	7.8	7.8	7.8	80	4.6	2	5	248	0.0	1014.9	0	0.000	0.0
20101014 20:00	7.8	7.8	7.8	80	4.6	0	2	248	0.0	1014.8	0	0.025	0.0
20101014 20:05	7.8	7.8	7.8	80	4.5	3	8	248	0.0	1014.8	0	0.000	0.0
20101014 20:10	7.7	7.7	7.7	80	4.5	2	5	248	0.0	1014.7	0	0.000	0.0
20101014 20:15	7.7	7.7	7.7	80	4.4	3	8	248	0.0	1014.7	0	0.000	0.0
20101014 20:20	7.6	7.6	7.6	80	4.3	2	6	248	0.0	1014.7	0	0.000	0.0
20101014 20:25	7.6	7.6	7.6	80	4.3	2	6	248	0.0	1014.6	0	0.000	0.0
20101014 20:30	7.5	7.5	7.5	80	4.3	2	5	248	0.0	1014.6	0	0.000	0.0
20101014 20:35	7.4	7.4	7.4	81	4.4	2	5	248	0.0	1014.7	0	0.000	0.0
20101014 20:40	7.4	7.4	7.4	81	4.4	2	5	248	0.0	1014.7	0	0.000	0.0
20101014 20:45	7.4	7.4	7.4	81	4.4	0	5	248	0.0	1014.7	0	0.000	0.0
20101014 20:50	7.4	7.4	7.4	82	4.5	2	6	248	0.0	1014.8	0	0.000	0.0
20101014 20:55	7.4	7.4	7.4	82	4.5	3	6	248	0.0	1014.8	0	0.000	0.0
20101014 21:00	7.4	7.4	7.4	82	4.5	5	6	248	0.0	1014.7	0	0.025	0.0
20101014 21:05	7.3	7.3	7.3	83	4.6	5	8	248	0.0	1014.7	0	0.000	0.0
20101014 21:10	7.3	7.3	7.3	83	4.6	2	6	248	0.0	1014.8	0	0.000	0.0
20101014 21:15	7.3	7.3	7.3	83	4.6	2	6	248	0.0	1014.7	0	0.000	0.0
20101014 21:20	7.3	7.3	7.3	83	4.6	3	6	248	0.0	1014.8	0	0.000	0.0
20101014 21:25	7.3	7.3	7.3	83	4.6	3	10	248	0.0	1014.8	0	0.000	0.0
20101014 21:30	7.4	7.4	7.4	83	4.7	2	5	248	0.0	1014.8	0	0.000	0.0
20101014 21:35	7.4	7.4	7.4	83	4.7	3	8	248	0.0	1014.9	0	0.000	0.0
20101014 21:40	7.4	7.4	7.4	83	4.7	2	8	248	0.0	1014.8	0	0.000	0.0
20101014 21:45	7.4	7.4	7.4	83	4.7	3	8	248	0.0	1014.8	0	0.000	0.0
20101014 21:50	7.3	7.3	7.3	83	4.6	3	8	248	0.0	1014.8	0	0.000	0.0
20101014 21:55	7.3	7.3	7.3	83	4.6	5	8	248	0.0	1014.8	0	0.000	0.0
20101014 22:00	7.2	7.2	7.2	83	4.5	3	8	248	0.0	1014.9	0	0.025	0.0
20101014 22:05	7.2	7.2	7.2	83	4.5	5	8	248	0.0	1014.7	0	0.000	0.0
20101014 22:10	7.2	7.2	7.2	83	4.5	3	6	248	0.0	1014.7	0	0.000	0.0
20101014 22:15	7.1	7.1	7.1	83	4.4	0	3	248	0.0	1014.8	0	0.000	0.0
20101014 22:20	7.0	7.0	7.0	84	4.5	2	5	248	0.0	1014.7	0	0.000	0.0
20101014 22:25	6.9	6.9	6.9	84	4.4	2	5	248	0.0	1014.7	0	0.000	0.0
20101014 22:30	6.8	6.8	6.8	84	4.3	2	6	248	0.0	1014.7	0	0.000	0.0
20101014 22:35	6.7	6.7	6.7	85	4.4	3	6	248	0.0	1014.7	0	0.000	0.0
20101014 22:40	6.7	6.7	6.7	85	4.3	2	6	248	0.0	1014.7	0	0.000	0.0
20101014 22:45	6.6	6.6	6.6	85	4.3	0	5	248	0.0	1014.7	0	0.000	0.0
20101014 22:50	6.6	6.6	6.6	85	4.2	0	3	248	0.0	1014.7	0	0.000	0.0
20101014 22:55	6.5	6.5	6.5	86	4.3	2	5	248	0.0	1014.7	0	0.000	0.0
20101014 23:00	6.4	6.4	6.4	86	4.3	0	3	248	0.0	1014.7	0	0.000	0.0
20101014 23:05	6.4	6.4	6.4	86	4.2	0	2	248	0.0	1014.7	0	0.000	0.0
20101014 23:10	6.3	6.3	6.3	86	4.2	3	6	248	0.0	1014.8	0	0.000	0.0
20101014 23:15	6.2	6.2	6.2	86	4.1	0	5	248	0.0	1014.8	0	0.000	0.0
20101014 23:20	6.2	6.2	6.2	86	4.0	0	3	248	0.0	1014.7	0	0.000	0.0
20101014 23:25	6.1	6.1	6.1	87	4.1	0	0	-100000	0.0	1014.8	0	0.000	0.0
20101014 23:30	6.1	6.1	6.1	87	4.1	0	0	-100000	0.0	1014.6	0	0.000	0.0
20101014 23:35	6.1	6.1	6.1	87	4.1	0	0	-100000	0.0	1014.7	0	0.000	0.0
20101014 23:40	6.0	6.0	6.0	87	4.0	0	0	-100000	0.0	1014.7	0	0.000	0.0
20101014 23:45	6.0	6.0	6.0	87	4.0	0	0	-100000	0.0	1014.7	0	0.000	0.0
20101014 23:50	6.1	6.1	6.1	87	4.1	0	3	248	0.0	1014.7	0	0.000	0.0
20101014 23:55	6.1	6.1	6.1	88	4.2	0	0	-100000	0.0	1014.6	0	0.000	0.0



Please note the license to use and transfer of this data:
http://creativecommons.org/licenses/by-nc-sa/3.0/deed.en

Bitte beachten sie die Lizenz zur Verwertung und Weitergabe der Daten:
http://creativecommons.org/licenses/by-nc-sa/3.0/deed.de

zurück zur Übersicht der Archivdaten (Monats und Tagesdaten)

Cookies helfen bei der Bereitstellung von Inhalten. Durch die Nutzung dieser Seiten erklärst du dich damit einverstanden, dass Cookies auf deinem Rechner gespeichert werden. Weitere Information